createdAt,value
2023-04-16T00:01:54.749Z,8.80
2023-04-16T00:04:21.665Z,8.80
2023-04-16T00:06:48.338Z,8.80
2023-04-16T00:09:14.963Z,8.70
2023-04-16T00:11:41.604Z,8.80
2023-04-16T00:14:08.215Z,8.70
2023-04-16T00:16:34.872Z,8.80
2023-04-16T00:19:01.586Z,8.80
2023-04-16T00:21:28.319Z,8.70
2023-04-16T00:23:54.951Z,8.80
2023-04-16T00:26:21.625Z,8.70
2023-04-16T00:28:48.222Z,8.70
2023-04-16T00:31:14.966Z,8.70
2023-04-16T00:33:41.637Z,8.80
2023-04-16T00:36:09.526Z,8.80
2023-04-16T00:38:37.001Z,8.70
2023-04-16T00:41:03.683Z,8.80
2023-04-16T00:43:31.634Z,8.70
2023-04-16T00:45:58.643Z,8.70
2023-04-16T00:48:27.985Z,8.70
2023-04-16T00:50:55.497Z,8.70
2023-04-16T00:53:24.230Z,8.70
2023-04-16T00:55:51.075Z,8.70
2023-04-16T00:58:18.326Z,8.70
2023-04-16T01:00:45.018Z,8.70
2023-04-16T01:03:11.925Z,8.70
2023-04-16T01:05:39.101Z,8.70
2023-04-16T01:08:06.099Z,8.70
2023-04-16T01:10:39.952Z,8.70
2023-04-16T01:13:06.550Z,8.70
2023-04-16T01:15:33.231Z,8.70
2023-04-16T01:17:59.958Z,8.60
2023-04-16T01:20:26.652Z,8.70
2023-04-16T01:22:53.391Z,8.70
2023-04-16T01:25:20.037Z,8.70
2023-04-16T01:27:49.971Z,8.70
2023-04-16T01:30:16.628Z,8.70
2023-04-16T01:32:43.313Z,8.70
2023-04-16T01:35:10.007Z,8.70
2023-04-16T01:37:36.653Z,8.70
2023-04-16T01:40:03.377Z,8.70
2023-04-16T01:42:30.000Z,8.70
2023-04-16T01:44:56.724Z,8.60
2023-04-16T01:47:23.442Z,8.70
2023-04-16T01:49:50.325Z,8.60
2023-04-16T01:52:16.939Z,8.70
2023-04-16T01:54:43.641Z,8.60
2023-04-16T01:57:11.148Z,8.70
2023-04-16T01:59:37.865Z,8.70
2023-04-16T02:02:11.326Z,8.70
2023-04-16T02:04:39.588Z,8.60
2023-04-16T02:07:06.547Z,8.60
2023-04-16T02:09:40.722Z,8.60
2023-04-16T02:12:08.031Z,8.70
2023-04-16T02:14:34.660Z,8.70
2023-04-16T02:17:01.328Z,8.70
2023-04-16T02:19:27.946Z,8.70
2023-04-16T02:21:54.923Z,8.60
2023-04-16T02:24:21.802Z,8.60
2023-04-16T02:26:48.431Z,8.60
2023-04-16T02:29:16.407Z,8.60
2023-04-16T02:31:43.156Z,8.60
2023-04-16T02:34:09.862Z,8.60
2023-04-16T02:36:36.843Z,8.60
2023-04-16T02:39:03.835Z,8.50
2023-04-16T02:41:30.557Z,8.60
2023-04-16T02:43:57.215Z,8.50
2023-04-16T02:46:24.012Z,8.60
2023-04-16T02:48:50.815Z,8.50
2023-04-16T02:51:17.450Z,8.50
2023-04-16T02:53:46.076Z,8.50
2023-04-16T02:56:13.009Z,8.50
2023-04-16T02:58:39.659Z,8.50
2023-04-16T03:01:06.362Z,8.50
2023-04-16T03:03:32.995Z,8.50
2023-04-16T03:05:59.599Z,8.50
2023-04-16T03:08:26.540Z,8.50
2023-04-16T03:10:53.239Z,8.50
2023-04-16T03:13:19.918Z,8.50
2023-04-16T03:15:50.039Z,8.50
2023-04-16T03:18:16.800Z,8.50
2023-04-16T03:20:43.492Z,8.40
2023-04-16T03:23:10.231Z,8.50
2023-04-16T03:25:36.881Z,8.40
2023-04-16T03:28:03.959Z,8.50
2023-04-16T03:30:30.685Z,8.40
2023-04-16T03:32:57.356Z,8.50
2023-04-16T03:35:24.081Z,8.40
2023-04-16T03:37:51.702Z,8.50
2023-04-16T03:40:18.411Z,8.40
2023-04-16T03:42:45.009Z,8.40
2023-04-16T03:45:11.694Z,8.40
2023-04-16T03:47:38.345Z,8.50
2023-04-16T03:50:05.450Z,8.40
2023-04-16T03:52:32.098Z,8.50
2023-04-16T03:54:58.750Z,8.40
2023-04-16T03:57:25.383Z,8.50
2023-04-16T03:59:52.085Z,8.50
2023-04-16T04:02:18.776Z,8.40
2023-04-16T04:04:45.546Z,8.40
2023-04-16T04:07:12.254Z,8.50
2023-04-16T04:09:38.840Z,8.40
2023-04-16T04:12:05.485Z,8.50
2023-04-16T04:14:32.310Z,8.50
2023-04-16T04:16:58.874Z,8.40
2023-04-16T04:19:25.551Z,8.40
2023-04-16T04:21:52.196Z,8.40
2023-04-16T04:24:18.796Z,8.40
2023-04-16T04:26:45.416Z,8.40
2023-04-16T04:29:12.226Z,8.40
2023-04-16T04:31:39.017Z,8.40
2023-04-16T04:34:05.738Z,8.40
2023-04-16T04:36:32.441Z,8.40
2023-04-16T04:38:59.071Z,8.40
2023-04-16T04:41:26.913Z,8.40
2023-04-16T04:43:53.577Z,8.40
2023-04-16T04:46:20.227Z,8.40
2023-04-16T04:48:46.915Z,8.40
2023-04-16T04:51:13.737Z,8.40
2023-04-16T04:53:40.807Z,8.40
2023-04-16T04:56:12.326Z,8.40
2023-04-16T04:58:40.908Z,8.40
2023-04-16T05:01:07.735Z,8.40
2023-04-16T05:03:34.396Z,8.40
2023-04-16T05:06:01.254Z,8.40
2023-04-16T05:08:27.947Z,8.40
2023-04-16T05:10:54.563Z,8.40
2023-04-16T05:13:21.554Z,8.40
2023-04-16T05:15:48.139Z,8.40
2023-04-16T05:18:14.761Z,8.40
2023-04-16T05:20:41.408Z,8.40
2023-04-16T05:23:08.508Z,8.40
2023-04-16T05:25:35.899Z,8.30
2023-04-16T05:28:02.530Z,8.30
2023-04-16T05:30:29.246Z,8.30
2023-04-16T05:32:56.599Z,8.30
2023-04-16T05:35:23.341Z,8.30
2023-04-16T05:37:49.953Z,8.30
2023-04-16T05:40:19.974Z,8.20
2023-04-16T05:42:46.947Z,8.30
2023-04-16T05:45:13.566Z,8.20
2023-04-16T05:47:40.165Z,8.30
2023-04-16T05:50:07.390Z,8.20
2023-04-16T05:52:34.005Z,8.30
2023-04-16T05:55:02.049Z,8.30
2023-04-16T05:57:30.305Z,8.30
2023-04-16T05:59:56.922Z,8.20
2023-04-16T06:02:24.094Z,8.30
2023-04-16T06:04:52.384Z,8.30
2023-04-16T06:07:19.584Z,8.30
2023-04-16T06:09:46.269Z,8.30
2023-04-16T06:12:12.975Z,8.30
2023-04-16T06:14:39.644Z,8.30
2023-04-16T06:17:06.274Z,8.30
2023-04-16T06:19:33.002Z,8.30
2023-04-16T06:22:00.781Z,8.30
2023-04-16T06:24:27.821Z,8.30
2023-04-16T06:26:54.743Z,8.30
2023-04-16T06:29:24.006Z,8.30
2023-04-16T06:31:55.525Z,8.30
2023-04-16T06:34:22.331Z,8.30
2023-04-16T06:36:49.894Z,8.30
2023-04-16T06:39:16.540Z,8.30
2023-04-16T06:41:43.718Z,8.30
2023-04-16T06:44:10.333Z,8.30
2023-04-16T06:46:36.975Z,8.30
2023-04-16T06:49:03.627Z,8.30
2023-04-16T06:51:30.618Z,8.30
2023-04-16T06:53:57.268Z,8.30
2023-04-16T06:56:23.926Z,8.30
2023-04-16T06:58:51.295Z,8.30
2023-04-16T07:01:18.523Z,8.30
2023-04-16T07:03:45.502Z,8.20
2023-04-16T07:06:12.326Z,8.20
2023-04-16T07:08:38.944Z,8.20
2023-04-16T07:11:05.845Z,8.20
2023-04-16T07:13:32.522Z,8.10
2023-04-16T07:15:59.304Z,8.20
2023-04-16T07:18:26.079Z,8.10
2023-04-16T07:20:52.819Z,8.10
2023-04-16T07:23:19.515Z,8.10
2023-04-16T07:25:46.159Z,8.10
2023-04-16T07:28:12.900Z,8.10
2023-04-16T07:30:39.578Z,8.10
2023-04-16T07:33:06.330Z,8.10
2023-04-16T07:35:33.039Z,8.00
2023-04-16T07:37:59.716Z,8.10
2023-04-16T07:40:26.565Z,8.00
2023-04-16T07:42:53.394Z,8.00
2023-04-16T07:45:20.053Z,7.90
2023-04-16T07:47:46.738Z,7.90
2023-04-16T07:50:13.511Z,7.80
2023-04-16T07:52:41.410Z,7.80
2023-04-16T07:55:09.085Z,7.80
2023-04-16T07:57:35.836Z,7.80
2023-04-16T08:00:04.921Z,7.70
2023-04-16T08:02:32.423Z,7.70
2023-04-16T08:04:59.918Z,7.70
2023-04-16T08:07:26.580Z,7.70
2023-04-16T08:09:54.054Z,7.60
2023-04-16T08:12:20.959Z,7.60
2023-04-16T08:14:47.969Z,7.60
2023-04-16T08:17:15.504Z,7.60
2023-04-16T08:19:43.833Z,7.60
2023-04-16T08:22:11.714Z,7.50
2023-04-16T08:24:58.115Z,7.50
2023-04-16T08:27:24.802Z,7.50
2023-04-16T08:29:51.435Z,7.50
2023-04-16T08:32:18.086Z,7.50
2023-04-16T08:34:44.814Z,7.50
2023-04-16T08:37:11.418Z,7.50
2023-04-16T08:39:39.140Z,7.50
2023-04-16T08:42:24.126Z,7.50
2023-04-16T08:44:58.121Z,7.50
2023-04-16T08:47:27.045Z,7.50
2023-04-16T08:49:58.449Z,7.50
2023-04-16T08:52:27.960Z,7.50
2023-04-16T08:55:20.136Z,7.50
2023-04-16T08:57:57.613Z,7.50
2023-04-16T09:00:24.629Z,7.50
2023-04-16T09:02:52.064Z,7.50
2023-04-16T09:05:28.553Z,7.50
2023-04-16T09:07:55.334Z,7.50
2023-04-16T09:10:22.290Z,7.60
2023-04-16T09:12:48.914Z,7.60
2023-04-16T09:15:15.580Z,7.60
2023-04-16T09:17:42.300Z,7.70
2023-04-16T09:20:10.833Z,7.70
2023-04-16T09:22:38.371Z,7.70
2023-04-16T09:25:05.443Z,7.70
2023-04-16T09:27:32.407Z,7.80
2023-04-16T09:29:59.205Z,7.80
2023-04-16T09:32:27.911Z,7.80
2023-04-16T09:35:01.706Z,7.80
2023-04-16T09:37:29.880Z,7.90
2023-04-16T09:39:58.683Z,7.90
2023-04-16T09:42:43.199Z,7.90
2023-04-16T09:45:11.446Z,7.90
2023-04-16T09:47:46.615Z,8.00
2023-04-16T09:50:19.073Z,8.00
2023-04-16T09:52:50.943Z,8.10
2023-04-16T09:55:23.954Z,8.10
2023-04-16T09:57:59.536Z,8.10
2023-04-16T10:00:35.494Z,8.20
2023-04-16T10:03:10.745Z,8.20
2023-04-16T10:05:37.495Z,8.30
2023-04-16T10:08:12.246Z,8.30
2023-04-16T10:10:39.212Z,8.30
2023-04-16T10:13:06.372Z,8.40
2023-04-16T10:15:33.314Z,8.40
2023-04-16T10:18:00.601Z,8.60
2023-04-16T10:20:27.617Z,8.60
2023-04-16T10:22:54.614Z,8.70
2023-04-16T10:25:21.901Z,8.70
2023-04-16T10:27:50.326Z,8.80
2023-04-16T10:30:18.733Z,8.80
2023-04-16T10:32:46.334Z,8.80
2023-04-16T10:35:19.580Z,8.90
2023-04-16T10:37:46.261Z,8.90
2023-04-16T10:40:27.056Z,9.00
2023-04-16T10:42:55.580Z,9.00
2023-04-16T10:45:31.186Z,9.00
2023-04-16T10:47:58.571Z,9.00
2023-04-16T10:50:34.152Z,9.10
2023-04-16T10:53:27.584Z,9.10
2023-04-16T10:56:04.758Z,9.20
2023-04-16T10:58:35.862Z,9.20
2023-04-16T11:01:10.852Z,9.20
2023-04-16T11:03:41.497Z,9.30
2023-04-16T11:06:12.056Z,9.20
2023-04-16T11:08:53.263Z,9.20
2023-04-16T11:11:25.656Z,9.20
2023-04-16T11:13:56.982Z,9.10
2023-04-16T11:16:26.105Z,9.10
2023-04-16T11:19:07.522Z,9.20
2023-04-16T11:21:34.314Z,9.10
2023-04-16T11:24:00.952Z,9.10
2023-04-16T11:26:30.604Z,9.10
2023-04-16T11:28:58.115Z,9.10
2023-04-16T11:31:27.485Z,9.20
2023-04-16T11:33:57.120Z,9.20
2023-04-16T11:36:26.118Z,9.30
2023-04-16T11:39:02.415Z,9.30
2023-04-16T11:41:29.100Z,9.30
2023-04-16T11:43:55.728Z,9.30
2023-04-16T11:46:27.433Z,9.40
2023-04-16T11:48:58.564Z,9.40
2023-04-16T11:51:25.167Z,9.40
2023-04-16T11:53:53.597Z,9.40
2023-04-16T11:56:31.261Z,9.40
2023-04-16T11:59:13.973Z,9.40
2023-04-16T12:01:45.797Z,9.40
2023-04-16T12:04:14.511Z,9.50
2023-04-16T12:07:02.185Z,9.60
2023-04-16T12:09:28.852Z,9.60
2023-04-16T12:11:55.564Z,9.60
2023-04-16T12:14:24.255Z,9.60
2023-04-16T12:16:54.733Z,9.70
2023-04-16T12:19:21.462Z,9.70
2023-04-16T12:21:49.995Z,9.70
2023-04-16T12:24:22.463Z,9.80
2023-04-16T12:27:02.588Z,9.80
2023-04-16T12:29:32.210Z,9.80
2023-04-16T12:31:58.900Z,9.80
2023-04-16T12:34:34.208Z,9.80
2023-04-16T12:37:12.819Z,9.80
2023-04-16T12:39:40.661Z,9.70
2023-04-16T12:42:09.743Z,9.70
2023-04-16T12:44:36.377Z,9.70
2023-04-16T12:47:04.938Z,9.80
2023-04-16T12:49:31.630Z,9.80
2023-04-16T12:51:58.342Z,9.80
2023-04-16T12:54:28.813Z,9.80
2023-04-16T12:56:55.503Z,9.80
2023-04-16T12:59:22.108Z,9.90
2023-04-16T13:01:48.898Z,10.00
2023-04-16T13:04:16.572Z,10.00
2023-04-16T13:06:43.405Z,10.00
2023-04-16T13:09:10.370Z,10.10
2023-04-16T13:11:37.365Z,10.10
2023-04-16T13:14:04.055Z,10.20
2023-04-16T13:16:30.727Z,10.20
2023-04-16T13:18:57.388Z,10.20
2023-04-16T13:21:24.167Z,10.10
2023-04-16T13:23:51.663Z,10.00
2023-04-16T13:26:19.188Z,9.80
2023-04-16T13:28:45.879Z,9.80
2023-04-16T13:31:12.877Z,9.80
2023-04-16T13:33:39.809Z,9.80
2023-04-16T13:36:06.936Z,9.80
2023-04-16T13:38:33.678Z,9.90
2023-04-16T13:41:02.869Z,9.80
2023-04-16T13:43:29.488Z,9.80
2023-04-16T13:45:56.568Z,9.70
2023-04-16T13:48:23.261Z,9.70
2023-04-16T13:50:50.671Z,9.70
2023-04-16T13:53:17.444Z,9.70
2023-04-16T13:55:44.859Z,9.60
2023-04-16T13:58:11.946Z,9.60
2023-04-16T14:00:38.745Z,9.60
2023-04-16T14:03:06.953Z,9.60
2023-04-16T14:05:33.815Z,9.50
2023-04-16T14:08:00.638Z,9.50
2023-04-16T14:10:27.461Z,9.40
2023-04-16T14:12:54.308Z,9.40
2023-04-16T14:15:21.362Z,9.40
2023-04-16T14:17:48.125Z,9.40
2023-04-16T14:20:15.022Z,9.30
2023-04-16T14:22:43.740Z,9.30
2023-04-16T14:25:10.445Z,9.30
2023-04-16T14:27:37.257Z,9.20
2023-04-16T14:30:05.132Z,9.30
2023-04-16T14:32:31.859Z,9.20
2023-04-16T14:34:58.728Z,9.10
2023-04-16T14:37:26.292Z,9.10
2023-04-16T14:39:54.028Z,9.10
2023-04-16T14:42:20.901Z,9.00
2023-04-16T14:44:48.316Z,9.00
2023-04-16T14:47:14.980Z,9.00
2023-04-16T14:49:41.577Z,8.90
2023-04-16T14:52:08.269Z,8.90
2023-04-16T14:54:35.021Z,8.90
2023-04-16T14:57:01.984Z,8.90
2023-04-16T14:59:28.948Z,8.90
2023-04-16T15:01:59.502Z,8.90
2023-04-16T15:04:26.528Z,8.80
2023-04-16T15:09:21.983Z,8.80
2023-04-16T15:11:48.927Z,8.80
2023-04-16T15:14:16.698Z,8.80
2023-04-16T15:16:43.359Z,8.80
2023-04-16T15:19:10.332Z,8.80
2023-04-16T15:21:37.285Z,8.80
2023-04-16T15:24:05.595Z,8.80
2023-04-16T15:26:35.744Z,8.90
2023-04-16T15:29:02.903Z,8.80
2023-04-16T15:31:29.595Z,8.80
2023-04-16T15:33:56.309Z,8.80
2023-04-16T15:36:23.054Z,8.80
2023-04-16T15:38:49.653Z,8.80
2023-04-16T15:41:16.356Z,8.80
2023-04-16T15:43:42.982Z,8.80
2023-04-16T15:46:10.575Z,8.80
2023-04-16T15:48:37.238Z,8.80
2023-04-16T15:51:04.031Z,8.80
2023-04-16T15:53:30.861Z,8.80
2023-04-16T15:55:57.563Z,8.80
2023-04-16T15:58:24.237Z,8.80
2023-04-16T16:00:50.947Z,8.80
2023-04-16T16:03:18.629Z,8.80
2023-04-16T16:05:48.997Z,8.80
2023-04-16T16:08:15.898Z,8.80
2023-04-16T16:10:43.036Z,8.70
2023-04-16T16:13:13.129Z,8.80
2023-04-16T16:15:41.414Z,8.80
2023-04-16T16:18:08.663Z,8.70
2023-04-16T16:20:36.607Z,8.70
2023-04-16T16:23:03.407Z,8.80
2023-04-16T16:25:30.353Z,8.80
2023-04-16T16:27:58.683Z,8.80
2023-04-16T16:30:26.272Z,8.70
2023-04-16T16:32:53.673Z,8.70
2023-04-16T16:35:20.541Z,8.70
2023-04-16T16:37:47.221Z,8.70
2023-04-16T16:40:13.926Z,8.70
2023-04-16T16:42:40.610Z,8.70
2023-04-16T16:45:07.885Z,8.70
2023-04-16T16:47:34.575Z,8.60
2023-04-16T16:50:02.898Z,8.70
2023-04-16T16:52:29.954Z,8.60
2023-04-16T16:54:56.772Z,8.60
2023-04-16T16:57:26.349Z,8.70
2023-04-16T16:59:54.463Z,8.60
2023-04-16T17:02:21.575Z,8.70
2023-04-16T17:04:48.185Z,8.60
2023-04-16T17:07:14.870Z,8.60
2023-04-16T17:09:41.561Z,8.60
2023-04-16T17:12:08.358Z,8.60
2023-04-16T17:14:35.507Z,8.60
2023-04-16T17:17:02.480Z,8.60
2023-04-16T17:19:29.411Z,8.60
2023-04-16T17:21:56.327Z,8.60
2023-04-16T17:24:22.967Z,8.60
2023-04-16T17:26:50.662Z,8.60
2023-04-16T17:29:17.461Z,8.60
2023-04-16T17:31:44.145Z,8.60
2023-04-16T17:34:11.159Z,8.70
2023-04-16T17:36:38.563Z,8.60
2023-04-16T17:39:05.365Z,8.60
2023-04-16T17:41:31.973Z,8.60
2023-04-16T17:43:58.591Z,8.60
2023-04-16T17:46:25.755Z,8.60
2023-04-16T17:48:52.557Z,8.60
2023-04-16T17:51:19.233Z,8.60
2023-04-16T17:53:45.909Z,8.60
2023-04-16T17:56:13.808Z,8.60
2023-04-16T17:58:40.746Z,8.60
2023-04-16T18:01:07.481Z,8.60
2023-04-16T18:03:35.162Z,8.50
2023-04-16T18:06:01.834Z,8.50
2023-04-16T18:08:29.499Z,8.50
2023-04-16T18:10:56.758Z,8.60
2023-04-16T18:13:27.484Z,8.60
2023-04-16T18:15:58.128Z,8.60
2023-04-16T18:18:25.699Z,8.60
2023-04-16T18:20:52.544Z,8.50
2023-04-16T18:23:22.903Z,8.60
2023-04-16T18:25:49.503Z,8.60
2023-04-16T18:28:17.523Z,8.50
2023-04-16T18:30:44.214Z,8.50
2023-04-16T18:33:38.911Z,8.50
2023-04-16T18:36:01.946Z,8.60
2023-04-16T18:38:30.547Z,8.60
2023-04-16T18:40:57.322Z,8.50
2023-04-16T18:43:24.291Z,8.50
2023-04-16T18:45:51.250Z,8.50
2023-04-16T18:48:17.947Z,8.50
2023-04-16T18:50:44.574Z,8.50
2023-04-16T18:53:11.224Z,8.50
2023-04-16T18:55:37.908Z,8.50
2023-04-16T18:58:04.654Z,8.50
2023-04-16T19:00:31.753Z,8.50
2023-04-16T19:02:58.597Z,8.50
2023-04-16T19:05:25.339Z,8.50
2023-04-16T19:07:52.034Z,8.50
2023-04-16T19:10:19.734Z,8.50
2023-04-16T19:12:46.449Z,8.50
2023-04-16T19:15:14.605Z,8.50
2023-04-16T19:17:41.671Z,8.50
2023-04-16T19:20:11.162Z,8.50
2023-04-16T19:22:38.316Z,8.50
2023-04-16T19:25:07.223Z,8.50
2023-04-16T19:27:34.185Z,8.50
2023-04-16T19:30:05.381Z,8.50
2023-04-16T19:32:32.189Z,8.50
2023-04-16T19:34:59.409Z,8.50
2023-04-16T19:37:27.494Z,8.50
2023-04-16T19:39:54.861Z,8.50
2023-04-16T19:42:22.110Z,8.60
2023-04-16T19:44:48.721Z,8.50
2023-04-16T19:47:15.820Z,8.50
2023-04-16T19:49:43.835Z,8.50
2023-04-16T19:52:10.541Z,8.50
2023-04-16T19:54:37.860Z,8.50
2023-04-16T19:57:05.157Z,8.50
2023-04-16T19:59:33.003Z,8.50
2023-04-16T20:02:00.194Z,8.50
2023-04-16T20:04:26.963Z,8.50
2023-04-16T20:06:54.027Z,8.50
2023-04-16T20:09:20.772Z,8.50
2023-04-16T20:11:48.255Z,8.50
2023-04-16T20:14:15.333Z,8.50
2023-04-16T20:16:43.593Z,8.50
2023-04-16T20:19:10.848Z,8.50
2023-04-16T20:21:40.619Z,8.50
2023-04-16T20:24:10.824Z,8.50
2023-04-16T20:26:37.575Z,8.50
2023-04-16T20:29:04.191Z,8.50
2023-04-16T20:31:30.876Z,8.50
2023-04-16T20:33:57.560Z,8.50
2023-04-16T20:36:24.226Z,8.50
2023-04-16T20:38:53.750Z,8.50
2023-04-16T20:41:21.265Z,8.50
2023-04-16T20:43:50.122Z,8.60
2023-04-16T20:46:17.620Z,8.50
2023-04-16T20:48:44.563Z,8.50
2023-04-16T20:51:11.419Z,8.60
2023-04-16T20:53:38.261Z,8.50
2023-04-16T20:56:06.630Z,8.50
2023-04-16T20:58:33.333Z,8.50
2023-04-16T21:00:59.996Z,8.50
2023-04-16T21:03:26.909Z,8.50
2023-04-16T21:05:55.410Z,8.50
2023-04-16T21:08:23.353Z,8.50
2023-04-16T21:10:50.554Z,8.50
2023-04-16T21:13:17.317Z,8.50
2023-04-16T21:15:44.969Z,8.50
2023-04-16T21:18:11.812Z,8.50
2023-04-16T21:20:39.100Z,8.50
2023-04-16T21:23:06.486Z,8.50
2023-04-16T21:25:33.555Z,8.50
2023-04-16T21:28:00.467Z,8.50
2023-04-16T21:30:27.175Z,8.50
2023-04-16T21:32:53.953Z,8.50
2023-04-16T21:35:20.704Z,8.50
2023-04-16T21:37:47.326Z,8.50
2023-04-16T21:40:14.173Z,8.50
2023-04-16T21:42:42.351Z,8.50
2023-04-16T21:45:10.408Z,8.50
2023-04-16T21:47:37.533Z,8.50
2023-04-16T21:50:04.638Z,8.50
2023-04-16T21:52:32.830Z,8.50
2023-04-16T21:55:00.256Z,8.50
2023-04-16T21:57:26.908Z,8.50
2023-04-16T21:59:53.642Z,8.50
2023-04-16T22:02:20.522Z,8.50
2023-04-16T22:04:48.589Z,8.50
2023-04-16T22:07:16.657Z,8.50
2023-04-16T22:09:43.493Z,8.50
2023-04-16T22:12:10.464Z,8.50
2023-04-16T22:14:40.652Z,8.50
2023-04-16T22:17:13.041Z,8.50
2023-04-16T22:19:39.796Z,8.50
2023-04-16T22:22:06.481Z,8.50
2023-04-16T22:24:33.157Z,8.50
2023-04-16T22:26:59.815Z,8.50
2023-04-16T22:29:26.447Z,8.50
2023-04-16T22:31:53.236Z,8.50
2023-04-16T22:34:19.908Z,8.50
2023-04-16T22:36:47.486Z,8.50
2023-04-16T22:39:14.434Z,8.50
2023-04-16T22:41:41.640Z,8.50
2023-04-16T22:44:08.362Z,8.40
2023-04-16T22:46:35.208Z,8.50
2023-04-16T22:49:02.588Z,8.50
2023-04-16T22:51:30.087Z,8.40
2023-04-16T22:53:56.740Z,8.40
2023-04-16T22:56:28.453Z,8.40
2023-04-16T22:58:55.327Z,8.40
2023-04-16T23:01:22.078Z,8.40
2023-04-16T23:03:48.960Z,8.30
2023-04-16T23:06:15.677Z,8.30
2023-04-16T23:08:42.333Z,8.30
2023-04-16T23:11:08.958Z,8.30
2023-04-16T23:13:35.696Z,8.30
2023-04-16T23:16:02.416Z,8.30
2023-04-16T23:18:29.202Z,8.30
2023-04-16T23:20:56.014Z,8.30
2023-04-16T23:23:22.692Z,8.30
2023-04-16T23:25:53.463Z,8.30
2023-04-16T23:28:20.724Z,8.30
2023-04-16T23:30:50.853Z,8.30
2023-04-16T23:33:17.490Z,8.30
2023-04-16T23:35:44.102Z,8.30
2023-04-16T23:38:10.791Z,8.30
2023-04-16T23:40:37.409Z,8.30
2023-04-16T23:43:04.200Z,8.30
2023-04-16T23:45:30.930Z,8.30
2023-04-16T23:47:57.681Z,8.30
2023-04-16T23:50:24.381Z,8.30
2023-04-16T23:52:51.049Z,8.30
2023-04-16T23:55:17.659Z,8.30
2023-04-16T23:57:44.311Z,8.30
